sensor_id;sensor_type;location;lat;lon;timestamp;pressure;altitude;pressure_sealevel;temperature;humidity
64886;BME280;51514;52.206;5.114;2022-11-13T00:00:55;102822.97;;;8.56;83.48
64886;BME280;51514;52.206;5.114;2022-11-13T00:03:20;102829.50;;;8.52;84.03
64886;BME280;51514;52.206;5.114;2022-11-13T00:05:45;102824.41;;;8.48;86.10
64886;BME280;51514;52.206;5.114;2022-11-13T00:08:11;102827.97;;;8.48;86.13
64886;BME280;51514;52.206;5.114;2022-11-13T00:10:36;102824.91;;;8.54;86.61
64886;BME280;51514;52.206;5.114;2022-11-13T00:13:02;102822.59;;;8.62;86.07
64886;BME280;51514;52.206;5.114;2022-11-13T00:15:27;102806.91;;;8.69;86.19
64886;BME280;51514;52.206;5.114;2022-11-13T00:17:52;102811.53;;;8.67;85.64
64886;BME280;51514;52.206;5.114;2022-11-13T00:20:18;102812.47;;;8.66;84.98
64886;BME280;51514;52.206;5.114;2022-11-13T00:22:44;102802.22;;;8.58;85.45
64886;BME280;51514;52.206;5.114;2022-11-13T00:25:09;102802.41;;;8.55;85.39
64886;BME280;51514;52.206;5.114;2022-11-13T00:27:35;102797.91;;;8.56;86.05
64886;BME280;51514;52.206;5.114;2022-11-13T00:30:00;102789.84;;;8.56;85.82
64886;BME280;51514;52.206;5.114;2022-11-13T00:32:26;102790.59;;;8.58;86.06
64886;BME280;51514;52.206;5.114;2022-11-13T00:34:52;102795.78;;;8.61;86.71
64886;BME280;51514;52.206;5.114;2022-11-13T00:37:17;102795.59;;;8.64;85.91
64886;BME280;51514;52.206;5.114;2022-11-13T00:39:43;102786.59;;;8.65;85.88
64886;BME280;51514;52.206;5.114;2022-11-13T00:42:08;102781.06;;;8.66;86.34
64886;BME280;51514;52.206;5.114;2022-11-13T00:44:34;102783.56;;;8.69;86.65
64886;BME280;51514;52.206;5.114;2022-11-13T00:46:59;102774.56;;;8.70;85.85
64886;BME280;51514;52.206;5.114;2022-11-13T00:49:24;102773.69;;;8.70;86.13
64886;BME280;51514;52.206;5.114;2022-11-13T00:51:50;102768.31;;;8.70;86.37
64886;BME280;51514;52.206;5.114;2022-11-13T00:54:15;102765.44;;;8.73;86.25
64886;BME280;51514;52.206;5.114;2022-11-13T00:56:40;102767.94;;;8.76;85.99
64886;BME280;51514;52.206;5.114;2022-11-13T00:59:05;102764.25;;;8.77;85.65
64886;BME280;51514;52.206;5.114;2022-11-13T01:01:31;102763.84;;;8.83;86.14
64886;BME280;51514;52.206;5.114;2022-11-13T01:03:56;102753.53;;;8.90;86.20
64886;BME280;51514;52.206;5.114;2022-11-13T01:06:24;102759.69;;;8.92;85.72
64886;BME280;51514;52.206;5.114;2022-11-13T01:08:55;102755.09;;;8.94;85.65
64886;BME280;51514;52.206;5.114;2022-11-13T01:11:24;102740.19;;;8.88;86.25
64886;BME280;51514;52.206;5.114;2022-11-13T01:13:50;102744.53;;;8.91;86.12
64886;BME280;51514;52.206;5.114;2022-11-13T01:16:19;102743.34;;;8.95;85.48
64886;BME280;51514;52.206;5.114;2022-11-13T01:18:45;102738.63;;;8.98;84.66
64886;BME280;51514;52.206;5.114;2022-11-13T01:23:38;102731.88;;;9.05;84.85
64886;BME280;51514;52.206;5.114;2022-11-13T01:26:12;102729.81;;;9.09;84.13
64886;BME280;51514;52.206;5.114;2022-11-13T01:28:39;102727.03;;;9.10;84.32
64886;BME280;51514;52.206;5.114;2022-11-13T01:31:11;102733.38;;;9.09;84.07
64886;BME280;51514;52.206;5.114;2022-11-13T01:33:36;102732.22;;;9.13;84.07
64886;BME280;51514;52.206;5.114;2022-11-13T01:36:04;102725.88;;;9.14;83.49
64886;BME280;51514;52.206;5.114;2022-11-13T01:38:30;102731.34;;;9.13;83.76
64886;BME280;51514;52.206;5.114;2022-11-13T01:40:56;102718.44;;;9.05;83.42
64886;BME280;51514;52.206;5.114;2022-11-13T01:43:28;102724.53;;;8.95;84.30
64886;BME280;51514;52.206;5.114;2022-11-13T01:48:46;102716.94;;;8.87;85.52
64886;BME280;51514;52.206;5.114;2022-11-13T01:51:16;102715.97;;;8.88;85.16
64886;BME280;51514;52.206;5.114;2022-11-13T01:53:44;102716.13;;;8.87;85.41
64886;BME280;51514;52.206;5.114;2022-11-13T01:56:11;102718.81;;;8.87;84.99
64886;BME280;51514;52.206;5.114;2022-11-13T01:58:38;102709.88;;;8.86;85.00
64886;BME280;51514;52.206;5.114;2022-11-13T02:01:07;102703.63;;;8.86;84.30
64886;BME280;51514;52.206;5.114;2022-11-13T02:03:33;102704.88;;;8.80;84.13
64886;BME280;51514;52.206;5.114;2022-11-13T02:05:58;102700.31;;;8.68;83.28
64886;BME280;51514;52.206;5.114;2022-11-13T02:08:24;102694.69;;;8.58;83.39
64886;BME280;51514;52.206;5.114;2022-11-13T02:10:49;102693.81;;;8.58;84.27
64886;BME280;51514;52.206;5.114;2022-11-13T02:13:15;102697.06;;;8.63;84.49
64886;BME280;51514;52.206;5.114;2022-11-13T02:15:41;102698.38;;;8.70;84.14
64886;BME280;51514;52.206;5.114;2022-11-13T02:18:08;102693.34;;;8.78;84.35
64886;BME280;51514;52.206;5.114;2022-11-13T02:20:44;102691.53;;;8.78;83.82
64886;BME280;51514;52.206;5.114;2022-11-13T02:23:34;102683.16;;;8.83;83.81
64886;BME280;51514;52.206;5.114;2022-11-13T02:26:01;102685.66;;;8.86;83.20
64886;BME280;51514;52.206;5.114;2022-11-13T02:28:27;102685.00;;;8.83;83.28
64886;BME280;51514;52.206;5.114;2022-11-13T02:30:53;102682.59;;;8.78;83.07
64886;BME280;51514;52.206;5.114;2022-11-13T02:33:30;102680.94;;;8.63;83.07
64886;BME280;51514;52.206;5.114;2022-11-13T02:35:56;102677.13;;;8.53;83.07
64886;BME280;51514;52.206;5.114;2022-11-13T02:38:21;102682.34;;;8.41;82.35
64886;BME280;51514;52.206;5.114;2022-11-13T02:40:48;102682.13;;;8.45;83.62
64886;BME280;51514;52.206;5.114;2022-11-13T02:43:16;102683.47;;;8.52;84.04
64886;BME280;51514;52.206;5.114;2022-11-13T02:45:42;102677.50;;;8.61;83.64
64886;BME280;51514;52.206;5.114;2022-11-13T02:48:07;102670.09;;;8.64;83.45
64886;BME280;51514;52.206;5.114;2022-11-13T02:50:34;102673.41;;;8.68;83.13
64886;BME280;51514;52.206;5.114;2022-11-13T02:53:00;102671.69;;;8.67;83.39
64886;BME280;51514;52.206;5.114;2022-11-13T02:55:26;102667.59;;;8.61;83.01
64886;BME280;51514;52.206;5.114;2022-11-13T02:57:51;102661.56;;;8.58;83.09
64886;BME280;51514;52.206;5.114;2022-11-13T03:00:17;102661.97;;;8.52;82.91
64886;BME280;51514;52.206;5.114;2022-11-13T03:02:42;102652.69;;;8.43;83.22
64886;BME280;51514;52.206;5.114;2022-11-13T03:05:08;102652.00;;;8.39;83.27
64886;BME280;51514;52.206;5.114;2022-11-13T03:07:33;102651.44;;;8.34;82.98
64886;BME280;51514;52.206;5.114;2022-11-13T03:09:59;102648.97;;;8.31;83.82
64886;BME280;51514;52.206;5.114;2022-11-13T03:12:24;102647.22;;;8.30;83.22
64886;BME280;51514;52.206;5.114;2022-11-13T03:14:49;102650.69;;;8.32;83.35
64886;BME280;51514;52.206;5.114;2022-11-13T03:17:15;102646.72;;;8.38;83.64
64886;BME280;51514;52.206;5.114;2022-11-13T03:19:40;102635.69;;;8.43;83.80
64886;BME280;51514;52.206;5.114;2022-11-13T03:22:05;102644.78;;;8.54;83.83
64886;BME280;51514;52.206;5.114;2022-11-13T03:24:31;102645.41;;;8.58;82.76
64886;BME280;51514;52.206;5.114;2022-11-13T03:26:56;102648.88;;;8.60;83.31
64886;BME280;51514;52.206;5.114;2022-11-13T03:29:21;102656.66;;;8.64;83.62
64886;BME280;51514;52.206;5.114;2022-11-13T03:31:47;102659.19;;;8.66;82.93
64886;BME280;51514;52.206;5.114;2022-11-13T03:34:12;102662.66;;;8.68;83.14
64886;BME280;51514;52.206;5.114;2022-11-13T03:36:37;102659.00;;;8.69;82.92
64886;BME280;51514;52.206;5.114;2022-11-13T03:39:03;102659.69;;;8.72;83.26
64886;BME280;51514;52.206;5.114;2022-11-13T03:41:28;102656.66;;;8.77;82.71
64886;BME280;51514;52.206;5.114;2022-11-13T03:43:54;102660.22;;;8.77;82.61
64886;BME280;51514;52.206;5.114;2022-11-13T03:46:19;102652.31;;;8.62;81.89
64886;BME280;51514;52.206;5.114;2022-11-13T03:48:44;102650.63;;;8.47;81.17
64886;BME280;51514;52.206;5.114;2022-11-13T03:51:10;102651.44;;;8.34;81.72
64886;BME280;51514;52.206;5.114;2022-11-13T03:53:35;102652.31;;;8.21;81.21
64886;BME280;51514;52.206;5.114;2022-11-13T03:56:00;102647.94;;;8.05;81.84
64886;BME280;51514;52.206;5.114;2022-11-13T03:58:26;102648.59;;;8.09;81.30
64886;BME280;51514;52.206;5.114;2022-11-13T04:00:53;102645.75;;;7.98;81.01
64886;BME280;51514;52.206;5.114;2022-11-13T04:03:19;102646.13;;;7.92;81.82
64886;BME280;51514;52.206;5.114;2022-11-13T04:05:47;102646.44;;;7.87;82.13
64886;BME280;51514;52.206;5.114;2022-11-13T04:08:13;102649.78;;;7.77;82.47
64886;BME280;51514;52.206;5.114;2022-11-13T04:10:38;102639.41;;;7.70;82.26
64886;BME280;51514;52.206;5.114;2022-11-13T04:13:04;102639.72;;;7.66;82.06
64886;BME280;51514;52.206;5.114;2022-11-13T04:15:29;102630.41;;;7.57;83.55
64886;BME280;51514;52.206;5.114;2022-11-13T04:17:54;102624.19;;;7.57;83.98
64886;BME280;51514;52.206;5.114;2022-11-13T04:20:20;102621.03;;;7.64;84.64
64886;BME280;51514;52.206;5.114;2022-11-13T04:22:45;102622.25;;;7.73;83.44
64886;BME280;51514;52.206;5.114;2022-11-13T04:25:10;102621.78;;;7.66;83.28
64886;BME280;51514;52.206;5.114;2022-11-13T04:27:36;102627.53;;;7.75;83.27
64886;BME280;51514;52.206;5.114;2022-11-13T04:30:03;102631.00;;;7.77;82.68
64886;BME280;51514;52.206;5.114;2022-11-13T04:32:28;102618.44;;;7.77;82.74
64886;BME280;51514;52.206;5.114;2022-11-13T04:34:53;102624.06;;;7.87;82.57
64886;BME280;51514;52.206;5.114;2022-11-13T04:37:19;102619.25;;;7.92;82.82
64886;BME280;51514;52.206;5.114;2022-11-13T04:39:44;102618.28;;;7.93;82.76
64886;BME280;51514;52.206;5.114;2022-11-13T04:42:10;102609.19;;;7.95;82.81
64886;BME280;51514;52.206;5.114;2022-11-13T04:44:54;102606.22;;;8.00;82.86
64886;BME280;51514;52.206;5.114;2022-11-13T04:47:19;102617.59;;;8.03;82.11
64886;BME280;51514;52.206;5.114;2022-11-13T04:49:45;102614.63;;;8.08;82.09
64886;BME280;51514;52.206;5.114;2022-11-13T04:52:10;102614.53;;;8.10;82.40
64886;BME280;51514;52.206;5.114;2022-11-13T04:54:35;102614.06;;;8.03;81.69
64886;BME280;51514;52.206;5.114;2022-11-13T04:57:01;102622.53;;;7.97;81.88
64886;BME280;51514;52.206;5.114;2022-11-13T04:59:26;102617.94;;;7.85;82.65
64886;BME280;51514;52.206;5.114;2022-11-13T05:01:51;102608.56;;;7.78;83.18
64886;BME280;51514;52.206;5.114;2022-11-13T05:04:17;102609.88;;;7.70;83.22
64886;BME280;51514;52.206;5.114;2022-11-13T05:06:42;102608.56;;;7.63;82.14
64886;BME280;51514;52.206;5.114;2022-11-13T05:09:09;102603.00;;;7.52;81.99
64886;BME280;51514;52.206;5.114;2022-11-13T05:11:34;102604.72;;;7.39;81.43
64886;BME280;51514;52.206;5.114;2022-11-13T05:14:00;102604.41;;;7.29;82.00
64886;BME280;51514;52.206;5.114;2022-11-13T05:16:25;102596.00;;;7.21;82.69
64886;BME280;51514;52.206;5.114;2022-11-13T05:18:50;102602.22;;;7.22;83.24
64886;BME280;51514;52.206;5.114;2022-11-13T05:21:16;102603.19;;;7.35;83.80
64886;BME280;51514;52.206;5.114;2022-11-13T05:23:41;102602.41;;;7.47;82.74
64886;BME280;51514;52.206;5.114;2022-11-13T05:26:11;102594.16;;;7.50;82.33
64886;BME280;51514;52.206;5.114;2022-11-13T05:28:38;102593.22;;;7.51;82.26
64886;BME280;51514;52.206;5.114;2022-11-13T05:31:11;102586.72;;;7.55;82.14
64886;BME280;51514;52.206;5.114;2022-11-13T05:33:37;102589.75;;;7.63;82.52
64886;BME280;51514;52.206;5.114;2022-11-13T05:36:13;102591.31;;;7.67;82.28
64886;BME280;51514;52.206;5.114;2022-11-13T05:38:39;102586.50;;;7.73;82.46
64886;BME280;51514;52.206;5.114;2022-11-13T05:41:07;102587.63;;;7.83;82.34
64886;BME280;51514;52.206;5.114;2022-11-13T05:43:33;102588.28;;;7.86;82.39
64886;BME280;51514;52.206;5.114;2022-11-13T05:46:01;102587.81;;;7.80;82.41
64886;BME280;51514;52.206;5.114;2022-11-13T05:48:27;102585.25;;;7.78;82.52
64886;BME280;51514;52.206;5.114;2022-11-13T05:50:53;102585.34;;;7.77;82.72
64886;BME280;51514;52.206;5.114;2022-11-13T05:53:18;102583.13;;;7.83;82.04
64886;BME280;51514;52.206;5.114;2022-11-13T05:55:43;102581.28;;;7.84;81.36
64886;BME280;51514;52.206;5.114;2022-11-13T05:58:09;102586.31;;;7.76;82.29
64886;BME280;51514;52.206;5.114;2022-11-13T06:00:36;102572.28;;;7.70;81.71
64886;BME280;51514;52.206;5.114;2022-11-13T06:03:01;102575.19;;;7.67;81.81
64886;BME280;51514;52.206;5.114;2022-11-13T06:05:27;102567.34;;;7.64;82.65
64886;BME280;51514;52.206;5.114;2022-11-13T06:07:52;102564.06;;;7.59;82.11
64886;BME280;51514;52.206;5.114;2022-11-13T06:10:17;102565.31;;;7.54;82.18
64886;BME280;51514;52.206;5.114;2022-11-13T06:12:42;102556.41;;;7.53;82.02
64886;BME280;51514;52.206;5.114;2022-11-13T06:15:08;102560.31;;;7.48;81.49
64886;BME280;51514;52.206;5.114;2022-11-13T06:17:34;102560.81;;;7.40;81.98
64886;BME280;51514;52.206;5.114;2022-11-13T06:19:59;102554.69;;;7.38;81.52
64886;BME280;51514;52.206;5.114;2022-11-13T06:22:24;102555.44;;;7.40;81.71
64886;BME280;51514;52.206;5.114;2022-11-13T06:24:52;102548.44;;;7.38;81.97
64886;BME280;51514;52.206;5.114;2022-11-13T06:27:18;102550.28;;;7.37;81.74
64886;BME280;51514;52.206;5.114;2022-11-13T06:29:43;102551.91;;;7.25;82.32
64886;BME280;51514;52.206;5.114;2022-11-13T06:32:08;102553.22;;;7.04;81.38
64886;BME280;51514;52.206;5.114;2022-11-13T06:34:34;102547.44;;;6.82;81.01
64886;BME280;51514;52.206;5.114;2022-11-13T06:36:59;102552.09;;;6.64;81.23
64886;BME280;51514;52.206;5.114;2022-11-13T06:39:24;102552.47;;;6.58;81.74
64886;BME280;51514;52.206;5.114;2022-11-13T06:41:50;102549.03;;;6.56;82.30
64886;BME280;51514;52.206;5.114;2022-11-13T06:44:15;102557.06;;;6.56;81.60
64886;BME280;51514;52.206;5.114;2022-11-13T06:46:40;102557.53;;;6.48;81.34
64886;BME280;51514;52.206;5.114;2022-11-13T06:49:06;102549.06;;;6.40;81.97
64886;BME280;51514;52.206;5.114;2022-11-13T06:51:31;102552.59;;;6.41;81.38
64886;BME280;51514;52.206;5.114;2022-11-13T06:53:56;102547.66;;;6.49;81.45
64886;BME280;51514;52.206;5.114;2022-11-13T06:56:22;102552.28;;;6.61;81.59
64886;BME280;51514;52.206;5.114;2022-11-13T06:58:48;102554.53;;;6.69;81.06
64886;BME280;51514;52.206;5.114;2022-11-13T07:01:18;102553.09;;;6.77;80.56
64886;BME280;51514;52.206;5.114;2022-11-13T07:03:43;102562.50;;;6.84;80.84
64886;BME280;51514;52.206;5.114;2022-11-13T07:06:12;102546.69;;;6.94;80.53
64886;BME280;51514;52.206;5.114;2022-11-13T07:08:38;102547.13;;;7.02;81.25
64886;BME280;51514;52.206;5.114;2022-11-13T07:11:05;102551.13;;;7.09;81.13
64886;BME280;51514;52.206;5.114;2022-11-13T07:13:32;102551.91;;;7.11;80.98
64886;BME280;51514;52.206;5.114;2022-11-13T07:16:05;102542.63;;;7.03;81.29
64886;BME280;51514;52.206;5.114;2022-11-13T07:18:31;102538.56;;;6.95;82.09
64886;BME280;51514;52.206;5.114;2022-11-13T07:20:57;102533.38;;;6.92;82.55
64886;BME280;51514;52.206;5.114;2022-11-13T07:23:27;102531.00;;;6.88;82.09
64886;BME280;51514;52.206;5.114;2022-11-13T07:25:52;102530.63;;;6.94;82.20
64886;BME280;51514;52.206;5.114;2022-11-13T07:28:19;102528.03;;;6.92;82.85
64886;BME280;51514;52.206;5.114;2022-11-13T07:30:45;102518.19;;;7.07;82.74
64886;BME280;51514;52.206;5.114;2022-11-13T07:33:10;102532.66;;;7.19;82.10
64886;BME280;51514;52.206;5.114;2022-11-13T07:35:35;102526.25;;;7.21;82.31
64886;BME280;51514;52.206;5.114;2022-11-13T07:38:01;102523.47;;;7.23;83.00
64886;BME280;51514;52.206;5.114;2022-11-13T07:40:26;102512.53;;;7.26;82.95
64886;BME280;51514;52.206;5.114;2022-11-13T07:42:58;102516.56;;;7.33;83.01
64886;BME280;51514;52.206;5.114;2022-11-13T07:45:25;102511.56;;;7.41;82.13
64886;BME280;51514;52.206;5.114;2022-11-13T07:47:56;102511.47;;;7.57;82.61
64886;BME280;51514;52.206;5.114;2022-11-13T07:50:22;102513.91;;;7.74;82.19
64886;BME280;51514;52.206;5.114;2022-11-13T07:52:47;102519.59;;;7.96;81.29
64886;BME280;51514;52.206;5.114;2022-11-13T07:55:12;102522.69;;;8.17;81.50
64886;BME280;51514;52.206;5.114;2022-11-13T07:57:38;102511.97;;;8.30;80.58
64886;BME280;51514;52.206;5.114;2022-11-13T08:00:06;102515.69;;;8.41;80.93
64886;BME280;51514;52.206;5.114;2022-11-13T08:02:31;102519.69;;;8.49;80.35
64886;BME280;51514;52.206;5.114;2022-11-13T08:04:57;102519.81;;;8.60;79.93
64886;BME280;51514;52.206;5.114;2022-11-13T08:07:22;102513.41;;;8.75;79.40
64886;BME280;51514;52.206;5.114;2022-11-13T08:09:48;102515.75;;;8.92;79.36
64886;BME280;51514;52.206;5.114;2022-11-13T08:12:13;102512.97;;;9.06;78.62
64886;BME280;51514;52.206;5.114;2022-11-13T08:14:38;102511.34;;;9.17;78.17
64886;BME280;51514;52.206;5.114;2022-11-13T08:17:03;102521.09;;;9.30;77.98
64886;BME280;51514;52.206;5.114;2022-11-13T08:19:29;102511.53;;;9.39;77.15
64886;BME280;51514;52.206;5.114;2022-11-13T08:21:54;102521.44;;;9.51;77.29
64886;BME280;51514;52.206;5.114;2022-11-13T08:24:19;102515.88;;;9.65;76.75
64886;BME280;51514;52.206;5.114;2022-11-13T08:26:45;102513.25;;;9.76;76.15
64886;BME280;51514;52.206;5.114;2022-11-13T08:29:10;102517.97;;;9.85;75.67
64886;BME280;51514;52.206;5.114;2022-11-13T08:31:35;102506.94;;;10.01;75.46
64886;BME280;51514;52.206;5.114;2022-11-13T08:34:01;102505.78;;;10.16;75.18
64886;BME280;51514;52.206;5.114;2022-11-13T08:36:26;102508.16;;;10.21;74.38
64886;BME280;51514;52.206;5.114;2022-11-13T08:38:51;102508.53;;;10.28;74.42
64886;BME280;51514;52.206;5.114;2022-11-13T08:41:16;102518.53;;;10.38;73.94
64886;BME280;51514;52.206;5.114;2022-11-13T08:43:42;102512.59;;;10.57;74.48
64886;BME280;51514;52.206;5.114;2022-11-13T08:46:07;102508.31;;;10.66;74.24
64886;BME280;51514;52.206;5.114;2022-11-13T08:48:35;102500.13;;;10.78;74.60
64886;BME280;51514;52.206;5.114;2022-11-13T08:51:02;102499.53;;;10.86;73.58
64886;BME280;51514;52.206;5.114;2022-11-13T08:53:27;102495.88;;;10.98;73.62
64886;BME280;51514;52.206;5.114;2022-11-13T08:55:52;102500.53;;;11.07;72.58
64886;BME280;51514;52.206;5.114;2022-11-13T08:58:18;102491.81;;;11.15;71.77
64886;BME280;51514;52.206;5.114;2022-11-13T09:00:46;102490.38;;;11.22;71.25
64886;BME280;51514;52.206;5.114;2022-11-13T09:03:11;102487.41;;;11.25;69.66
64886;BME280;51514;52.206;5.114;2022-11-13T09:05:37;102481.75;;;11.28;68.84
64886;BME280;51514;52.206;5.114;2022-11-13T09:08:03;102483.13;;;11.33;68.69
64886;BME280;51514;52.206;5.114;2022-11-13T09:10:29;102492.56;;;11.39;68.77
64886;BME280;51514;52.206;5.114;2022-11-13T09:13:00;102485.69;;;11.46;69.58
64886;BME280;51514;52.206;5.114;2022-11-13T09:15:26;102481.88;;;11.49;68.70
64886;BME280;51514;52.206;5.114;2022-11-13T09:18:01;102475.25;;;11.42;67.59
64886;BME280;51514;52.206;5.114;2022-11-13T09:20:28;102479.69;;;11.43;67.79
64886;BME280;51514;52.206;5.114;2022-11-13T09:23:02;102478.44;;;11.47;66.87
64886;BME280;51514;52.206;5.114;2022-11-13T09:25:29;102477.69;;;11.56;67.00
64886;BME280;51514;52.206;5.114;2022-11-13T09:27:57;102477.44;;;11.59;67.10
64886;BME280;51514;52.206;5.114;2022-11-13T09:30:23;102483.44;;;11.62;67.26
64886;BME280;51514;52.206;5.114;2022-11-13T09:32:53;102474.47;;;11.62;67.77
64886;BME280;51514;52.206;5.114;2022-11-13T09:35:19;102476.53;;;11.69;67.88
64886;BME280;51514;52.206;5.114;2022-11-13T09:38:05;102474.59;;;11.83;67.11
64886;BME280;51514;52.206;5.114;2022-11-13T09:40:47;102480.38;;;11.89;67.57
64886;BME280;51514;52.206;5.114;2022-11-13T09:43:34;102470.75;;;11.96;66.11
64886;BME280;51514;52.206;5.114;2022-11-13T09:46:29;102472.44;;;12.09;65.87
64886;BME280;51514;52.206;5.114;2022-11-13T09:48:56;102467.47;;;12.14;64.95
64886;BME280;51514;52.206;5.114;2022-11-13T09:51:32;102469.19;;;12.15;65.04
64886;BME280;51514;52.206;5.114;2022-11-13T09:54:04;102466.13;;;12.19;64.88
64886;BME280;51514;52.206;5.114;2022-11-13T09:56:33;102460.03;;;12.27;65.64
64886;BME280;51514;52.206;5.114;2022-11-13T09:59:01;102467.66;;;12.33;64.26
64886;BME280;51514;52.206;5.114;2022-11-13T10:04:07;102455.50;;;12.48;64.83
64886;BME280;51514;52.206;5.114;2022-11-13T10:12:07;102447.31;;;12.80;64.63
64886;BME280;51514;52.206;5.114;2022-11-13T10:14:40;102448.34;;;12.89;63.79
64886;BME280;51514;52.206;5.114;2022-11-13T10:17:36;102433.16;;;12.97;61.18
64886;BME280;51514;52.206;5.114;2022-11-13T10:20:12;102434.75;;;13.09;62.04
64886;BME280;51514;52.206;5.114;2022-11-13T10:23:31;102444.81;;;13.19;59.58
64886;BME280;51514;52.206;5.114;2022-11-13T10:25:56;102434.16;;;13.27;64.29
64886;BME280;51514;52.206;5.114;2022-11-13T10:28:26;102437.03;;;13.35;61.78
64886;BME280;51514;52.206;5.114;2022-11-13T10:30:51;102434.06;;;13.47;63.18
64886;BME280;51514;52.206;5.114;2022-11-13T10:33:20;102433.63;;;13.52;60.88
64886;BME280;51514;52.206;5.114;2022-11-13T10:36:03;102428.09;;;13.53;57.32
64886;BME280;51514;52.206;5.114;2022-11-13T10:38:42;102426.97;;;13.66;57.01
64886;BME280;51514;52.206;5.114;2022-11-13T10:41:16;102417.84;;;13.76;56.90
64886;BME280;51514;52.206;5.114;2022-11-13T10:43:54;102411.56;;;13.85;56.06
64886;BME280;51514;52.206;5.114;2022-11-13T10:46:25;102409.16;;;13.92;55.90
64886;BME280;51514;52.206;5.114;2022-11-13T10:48:51;102407.03;;;14.05;56.24
64886;BME280;51514;52.206;5.114;2022-11-13T10:51:29;102399.31;;;14.10;54.85
64886;BME280;51514;52.206;5.114;2022-11-13T10:53:55;102396.31;;;14.23;55.52
64886;BME280;51514;52.206;5.114;2022-11-13T10:59:16;102398.16;;;14.42;52.41
64886;BME280;51514;52.206;5.114;2022-11-13T11:01:43;102387.28;;;14.51;52.53
64886;BME280;51514;52.206;5.114;2022-11-13T11:04:18;102378.97;;;14.63;53.33
64886;BME280;51514;52.206;5.114;2022-11-13T11:06:44;102378.63;;;14.75;51.53
64886;BME280;51514;52.206;5.114;2022-11-13T11:09:20;102366.63;;;14.78;48.61
64886;BME280;51514;52.206;5.114;2022-11-13T11:12:10;102365.47;;;14.80;49.39
64886;BME280;51514;52.206;5.114;2022-11-13T11:17:23;102352.81;;;14.98;51.03
64886;BME280;51514;52.206;5.114;2022-11-13T11:19:57;102356.31;;;15.09;51.10
64886;BME280;51514;52.206;5.114;2022-11-13T11:22:29;102348.59;;;15.14;50.15
64886;BME280;51514;52.206;5.114;2022-11-13T11:25:16;102352.25;;;15.22;50.08
64886;BME280;51514;52.206;5.114;2022-11-13T11:27:48;102340.59;;;15.30;50.18
64886;BME280;51514;52.206;5.114;2022-11-13T11:30:23;102341.03;;;15.35;49.39
64886;BME280;51514;52.206;5.114;2022-11-13T11:33:01;102337.13;;;15.38;49.46
64886;BME280;51514;52.206;5.114;2022-11-13T11:35:37;102324.22;;;15.40;48.98
64886;BME280;51514;52.206;5.114;2022-11-13T11:38:10;102320.22;;;15.44;49.12
64886;BME280;51514;52.206;5.114;2022-11-13T11:40:46;102323.28;;;15.49;50.14
64886;BME280;51514;52.206;5.114;2022-11-13T11:46:11;102318.66;;;15.59;51.53
64886;BME280;51514;52.206;5.114;2022-11-13T11:48:36;102309.06;;;15.64;51.20
64886;BME280;51514;52.206;5.114;2022-11-13T11:51:24;102302.59;;;15.65;50.33
64886;BME280;51514;52.206;5.114;2022-11-13T11:54:23;102305.78;;;15.61;50.07
64886;BME280;51514;52.206;5.114;2022-11-13T11:57:01;102291.88;;;15.64;50.94
64886;BME280;51514;52.206;5.114;2022-11-13T12:13:01;102272.72;;;15.91;52.88
64886;BME280;51514;52.206;5.114;2022-11-13T12:15:53;102277.38;;;15.99;52.49
64886;BME280;51514;52.206;5.114;2022-11-13T12:18:30;102259.69;;;16.03;51.89
64886;BME280;51514;52.206;5.114;2022-11-13T12:21:20;102256.97;;;16.03;50.57
64886;BME280;51514;52.206;5.114;2022-11-13T12:24:15;102254.97;;;16.05;50.76
64886;BME280;51514;52.206;5.114;2022-11-13T12:26:49;102242.06;;;16.07;50.89
64886;BME280;51514;52.206;5.114;2022-11-13T12:29:22;102245.31;;;16.11;51.53
64886;BME280;51514;52.206;5.114;2022-11-13T12:32:29;102237.16;;;16.11;50.91
64886;BME280;51514;52.206;5.114;2022-11-13T12:35:19;102234.25;;;16.12;50.41
64886;BME280;51514;52.206;5.114;2022-11-13T12:37:58;102229.00;;;16.11;49.51
64886;BME280;51514;52.206;5.114;2022-11-13T12:41:03;102233.78;;;16.17;49.20
64886;BME280;51514;52.206;5.114;2022-11-13T12:46:10;102221.41;;;16.22;49.91
64886;BME280;51514;52.206;5.114;2022-11-13T12:48:39;102222.78;;;16.26;48.51
64886;BME280;51514;52.206;5.114;2022-11-13T12:51:12;102227.19;;;16.27;47.75
64886;BME280;51514;52.206;5.114;2022-11-13T12:56:16;102223.47;;;16.28;48.36
64886;BME280;51514;52.206;5.114;2022-11-13T12:58:52;102208.69;;;16.31;48.45
64886;BME280;51514;52.206;5.114;2022-11-13T13:01:19;102204.75;;;16.33;49.11
64886;BME280;51514;52.206;5.114;2022-11-13T13:17:17;102189.50;;;16.40;50.77
64886;BME280;51514;52.206;5.114;2022-11-13T13:19:42;102188.81;;;16.38;49.75
64886;BME280;51514;52.206;5.114;2022-11-13T13:22:23;102188.97;;;16.37;50.01
64886;BME280;51514;52.206;5.114;2022-11-13T13:27:28;102181.50;;;16.39;49.17
64886;BME280;51514;52.206;5.114;2022-11-13T13:29:53;102175.19;;;16.38;49.85
64886;BME280;51514;52.206;5.114;2022-11-13T13:38:09;102171.78;;;16.36;49.40
64886;BME280;51514;52.206;5.114;2022-11-13T13:40:38;102162.44;;;16.39;49.15
64886;BME280;51514;52.206;5.114;2022-11-13T13:43:16;102155.44;;;16.36;48.43
64886;BME280;51514;52.206;5.114;2022-11-13T13:48:27;102151.88;;;16.36;48.86
64886;BME280;51514;52.206;5.114;2022-11-13T13:50:54;102152.88;;;16.35;49.08
64886;BME280;51514;52.206;5.114;2022-11-13T13:53:25;102139.28;;;16.35;49.89
64886;BME280;51514;52.206;5.114;2022-11-13T13:55:53;102136.03;;;16.31;49.50
64886;BME280;51514;52.206;5.114;2022-11-13T13:58:32;102143.34;;;16.31;50.09
64886;BME280;51514;52.206;5.114;2022-11-13T14:01:05;102138.06;;;16.29;50.18
64886;BME280;51514;52.206;5.114;2022-11-13T14:03:31;102130.53;;;16.23;49.82
64886;BME280;51514;52.206;5.114;2022-11-13T14:06:22;102123.25;;;16.24;49.80
64886;BME280;51514;52.206;5.114;2022-11-13T14:08:48;102114.91;;;16.25;50.02
64886;BME280;51514;52.206;5.114;2022-11-13T14:11:22;102120.03;;;16.28;50.56